sensor_id;sensor_type;location;lat;lon;timestamp;P1;durP1;ratioP1;P2;durP2;ratioP2
41480;SDS011;27217;51.220;5.308;2023-06-22T00:00:52;7.35;;;3.28;;
41480;SDS011;27217;51.220;5.308;2023-06-22T00:03:18;9.85;;;4.00;;
41480;SDS011;27217;51.220;5.308;2023-06-22T00:05:46;4.03;;;3.00;;
41480;SDS011;27217;51.220;5.308;2023-06-22T00:08:12;7.07;;;3.40;;
41480;SDS011;27217;51.220;5.308;2023-06-22T00:10:38;6.30;;;3.10;;
41480;SDS011;27217;51.220;5.308;2023-06-22T00:13:05;6.95;;;3.58;;
41480;SDS011;27217;51.220;5.308;2023-06-22T00:15:32;5.43;;;3.05;;
41480;SDS011;27217;51.220;5.308;2023-06-22T00:17:58;4.45;;;3.05;;
41480;SDS011;27217;51.220;5.308;2023-06-22T00:20:24;5.22;;;3.72;;
41480;SDS011;27217;51.220;5.308;2023-06-22T00:22:57;7.07;;;3.80;;
41480;SDS011;27217;51.220;5.308;2023-06-22T00:25:24;5.88;;;3.40;;
41480;SDS011;27217;51.220;5.308;2023-06-22T00:27:50;6.28;;;3.75;;
41480;SDS011;27217;51.220;5.308;2023-06-22T00:30:16;6.47;;;3.95;;
41480;SDS011;27217;51.220;5.308;2023-06-22T00:32:42;6.55;;;3.95;;
41480;SDS011;27217;51.220;5.308;2023-06-22T00:35:09;10.23;;;4.22;;
41480;SDS011;27217;51.220;5.308;2023-06-22T00:37:38;3.95;;;3.40;;
41480;SDS011;27217;51.220;5.308;2023-06-22T00:40:07;4.93;;;3.75;;
41480;SDS011;27217;51.220;5.308;2023-06-22T00:42:37;5.18;;;4.00;;
41480;SDS011;27217;51.220;5.308;2023-06-22T00:45:04;6.57;;;4.18;;
41480;SDS011;27217;51.220;5.308;2023-06-22T00:47:30;7.10;;;4.13;;
41480;SDS011;27217;51.220;5.308;2023-06-22T00:49:56;8.38;;;4.50;;
41480;SDS011;27217;51.220;5.308;2023-06-22T00:52:22;4.00;;;3.38;;
41480;SDS011;27217;51.220;5.308;2023-06-22T00:54:54;9.10;;;5.07;;
41480;SDS011;27217;51.220;5.308;2023-06-22T00:57:21;5.05;;;4.30;;
41480;SDS011;27217;51.220;5.308;2023-06-22T00:59:53;6.35;;;4.38;;
41480;SDS011;27217;51.220;5.308;2023-06-22T01:02:20;9.60;;;4.53;;
41480;SDS011;27217;51.220;5.308;2023-06-22T01:04:46;6.97;;;4.30;;
41480;SDS011;27217;51.220;5.308;2023-06-22T01:10:03;7.70;;;4.88;;
41480;SDS011;27217;51.220;5.308;2023-06-22T01:12:32;6.38;;;4.50;;
41480;SDS011;27217;51.220;5.308;2023-06-22T01:15:10;8.23;;;5.50;;
41480;SDS011;27217;51.220;5.308;2023-06-22T01:17:40;10.95;;;4.88;;
41480;SDS011;27217;51.220;5.308;2023-06-22T01:20:09;8.00;;;4.70;;
41480;SDS011;27217;51.220;5.308;2023-06-22T01:25:46;8.05;;;4.88;;
41480;SDS011;27217;51.220;5.308;2023-06-22T01:28:20;7.75;;;6.00;;
41480;SDS011;27217;51.220;5.308;2023-06-22T01:30:56;11.63;;;6.18;;
41480;SDS011;27217;51.220;5.308;2023-06-22T01:33:34;11.18;;;6.53;;
41480;SDS011;27217;51.220;5.308;2023-06-22T01:36:03;8.15;;;5.90;;
41480;SDS011;27217;51.220;5.308;2023-06-22T01:38:30;11.68;;;6.35;;
41480;SDS011;27217;51.220;5.308;2023-06-22T01:40:57;7.95;;;6.07;;
41480;SDS011;27217;51.220;5.308;2023-06-22T01:43:25;9.20;;;7.05;;
41480;SDS011;27217;51.220;5.308;2023-06-22T01:45:52;14.07;;;6.88;;
41480;SDS011;27217;51.220;5.308;2023-06-22T01:48:19;11.68;;;7.10;;
41480;SDS011;27217;51.220;5.308;2023-06-22T01:50:45;10.82;;;6.85;;
41480;SDS011;27217;51.220;5.308;2023-06-22T01:53:12;20.30;;;8.00;;
41480;SDS011;27217;51.220;5.308;2023-06-22T01:55:37;11.40;;;6.88;;
41480;SDS011;27217;51.220;5.308;2023-06-22T01:58:03;12.85;;;7.50;;
41480;SDS011;27217;51.220;5.308;2023-06-22T02:00:32;9.10;;;6.95;;
41480;SDS011;27217;51.220;5.308;2023-06-22T02:05:37;10.13;;;7.90;;
41480;SDS011;27217;51.220;5.308;2023-06-22T02:08:11;9.80;;;7.22;;
41480;SDS011;27217;51.220;5.308;2023-06-22T02:10:46;11.88;;;7.88;;
41480;SDS011;27217;51.220;5.308;2023-06-22T02:13:14;11.20;;;7.40;;
41480;SDS011;27217;51.220;5.308;2023-06-22T02:15:40;11.68;;;8.07;;
41480;SDS011;27217;51.220;5.308;2023-06-22T02:18:07;12.65;;;8.07;;
41480;SDS011;27217;51.220;5.308;2023-06-22T02:20:39;10.07;;;8.10;;
41480;SDS011;27217;51.220;5.308;2023-06-22T02:23:05;12.23;;;8.32;;
41480;SDS011;27217;51.220;5.308;2023-06-22T02:25:32;18.58;;;9.20;;
41480;SDS011;27217;51.220;5.308;2023-06-22T02:27:58;12.32;;;8.15;;
41480;SDS011;27217;51.220;5.308;2023-06-22T02:30:24;14.40;;;9.25;;
41480;SDS011;27217;51.220;5.308;2023-06-22T02:32:49;14.50;;;9.32;;
41480;SDS011;27217;51.220;5.308;2023-06-22T02:35:23;12.60;;;9.13;;
41480;SDS011;27217;51.220;5.308;2023-06-22T02:37:50;12.90;;;9.30;;
41480;SDS011;27217;51.220;5.308;2023-06-22T02:40:17;19.70;;;10.52;;
41480;SDS011;27217;51.220;5.308;2023-06-22T02:42:43;13.77;;;9.75;;
41480;SDS011;27217;51.220;5.308;2023-06-22T02:45:09;15.73;;;9.60;;
41480;SDS011;27217;51.220;5.308;2023-06-22T02:47:35;13.13;;;10.18;;
41480;SDS011;27217;51.220;5.308;2023-06-22T02:50:01;21.30;;;10.77;;
41480;SDS011;27217;51.220;5.308;2023-06-22T02:52:27;15.77;;;9.55;;
41480;SDS011;27217;51.220;5.308;2023-06-22T02:54:52;15.35;;;9.48;;
41480;SDS011;27217;51.220;5.308;2023-06-22T02:57:18;14.40;;;10.38;;
41480;SDS011;27217;51.220;5.308;2023-06-22T02:59:44;17.30;;;10.32;;
41480;SDS011;27217;51.220;5.308;2023-06-22T03:02:10;14.27;;;9.45;;
41480;SDS011;27217;51.220;5.308;2023-06-22T03:04:36;18.27;;;10.57;;
41480;SDS011;27217;51.220;5.308;2023-06-22T03:07:02;16.48;;;11.32;;
41480;SDS011;27217;51.220;5.308;2023-06-22T03:09:28;24.05;;;11.40;;
41480;SDS011;27217;51.220;5.308;2023-06-22T03:11:54;14.95;;;10.40;;
41480;SDS011;27217;51.220;5.308;2023-06-22T03:14:20;18.23;;;10.18;;
41480;SDS011;27217;51.220;5.308;2023-06-22T03:16:46;18.15;;;11.15;;
41480;SDS011;27217;51.220;5.308;2023-06-22T03:19:12;15.48;;;11.05;;
41480;SDS011;27217;51.220;5.308;2023-06-22T03:21:38;15.48;;;11.15;;
41480;SDS011;27217;51.220;5.308;2023-06-22T03:24:05;17.92;;;11.15;;
41480;SDS011;27217;51.220;5.308;2023-06-22T03:26:31;17.77;;;11.50;;
41480;SDS011;27217;51.220;5.308;2023-06-22T03:28:57;15.77;;;10.77;;
41480;SDS011;27217;51.220;5.308;2023-06-22T03:31:23;19.52;;;12.25;;
41480;SDS011;27217;51.220;5.308;2023-06-22T03:33:49;15.40;;;10.18;;
41480;SDS011;27217;51.220;5.308;2023-06-22T03:36:19;25.00;;;11.35;;
41480;SDS011;27217;51.220;5.308;2023-06-22T03:38:49;21.42;;;12.20;;
41480;SDS011;27217;51.220;5.308;2023-06-22T03:41:16;18.70;;;11.88;;
41480;SDS011;27217;51.220;5.308;2023-06-22T03:43:41;19.55;;;11.95;;
41480;SDS011;27217;51.220;5.308;2023-06-22T03:46:08;16.65;;;11.10;;
41480;SDS011;27217;51.220;5.308;2023-06-22T03:48:34;21.33;;;12.23;;
41480;SDS011;27217;51.220;5.308;2023-06-22T03:51:00;25.20;;;12.55;;
41480;SDS011;27217;51.220;5.308;2023-06-22T03:53:28;17.65;;;11.65;;
41480;SDS011;27217;51.220;5.308;2023-06-22T03:55:54;16.80;;;11.35;;
41480;SDS011;27217;51.220;5.308;2023-06-22T03:58:20;16.73;;;12.32;;
41480;SDS011;27217;51.220;5.308;2023-06-22T04:00:47;16.05;;;11.70;;
41480;SDS011;27217;51.220;5.308;2023-06-22T04:03:14;16.73;;;10.98;;
41480;SDS011;27217;51.220;5.308;2023-06-22T04:05:40;17.42;;;10.98;;
41480;SDS011;27217;51.220;5.308;2023-06-22T04:08:06;17.98;;;11.32;;
41480;SDS011;27217;51.220;5.308;2023-06-22T04:10:33;16.88;;;11.95;;
41480;SDS011;27217;51.220;5.308;2023-06-22T04:12:59;22.17;;;11.45;;
41480;SDS011;27217;51.220;5.308;2023-06-22T04:15:25;16.35;;;11.52;;
41480;SDS011;27217;51.220;5.308;2023-06-22T04:17:50;14.50;;;10.80;;
41480;SDS011;27217;51.220;5.308;2023-06-22T04:20:16;13.68;;;10.80;;
41480;SDS011;27217;51.220;5.308;2023-06-22T04:22:42;17.67;;;11.93;;
41480;SDS011;27217;51.220;5.308;2023-06-22T04:25:08;16.05;;;10.48;;
41480;SDS011;27217;51.220;5.308;2023-06-22T04:27:33;14.20;;;10.60;;
41480;SDS011;27217;51.220;5.308;2023-06-22T04:30:05;16.10;;;10.68;;
41480;SDS011;27217;51.220;5.308;2023-06-22T04:32:32;17.88;;;10.00;;
41480;SDS011;27217;51.220;5.308;2023-06-22T04:34:58;17.27;;;10.20;;
41480;SDS011;27217;51.220;5.308;2023-06-22T04:37:29;18.70;;;10.02;;
41480;SDS011;27217;51.220;5.308;2023-06-22T04:39:55;16.77;;;9.60;;
41480;SDS011;27217;51.220;5.308;2023-06-22T04:42:22;15.82;;;10.13;;
41480;SDS011;27217;51.220;5.308;2023-06-22T04:44:48;14.98;;;10.38;;
41480;SDS011;27217;51.220;5.308;2023-06-22T04:47:14;17.50;;;10.80;;
41480;SDS011;27217;51.220;5.308;2023-06-22T04:49:40;21.00;;;11.25;;
41480;SDS011;27217;51.220;5.308;2023-06-22T04:52:08;19.33;;;10.65;;
41480;SDS011;27217;51.220;5.308;2023-06-22T04:54:36;16.52;;;10.35;;
41480;SDS011;27217;51.220;5.308;2023-06-22T04:57:04;19.70;;;10.68;;
41480;SDS011;27217;51.220;5.308;2023-06-22T04:59:34;17.35;;;10.82;;
41480;SDS011;27217;51.220;5.308;2023-06-22T05:02:01;17.13;;;10.00;;
41480;SDS011;27217;51.220;5.308;2023-06-22T05:04:28;20.00;;;11.50;;
41480;SDS011;27217;51.220;5.308;2023-06-22T05:06:58;18.08;;;11.73;;
41480;SDS011;27217;51.220;5.308;2023-06-22T05:09:29;20.58;;;10.88;;
41480;SDS011;27217;51.220;5.308;2023-06-22T05:11:55;16.83;;;10.55;;
41480;SDS011;27217;51.220;5.308;2023-06-22T05:14:24;13.60;;;10.48;;
41480;SDS011;27217;51.220;5.308;2023-06-22T05:16:50;13.27;;;9.75;;
41480;SDS011;27217;51.220;5.308;2023-06-22T05:19:17;16.42;;;10.77;;
41480;SDS011;27217;51.220;5.308;2023-06-22T05:21:43;15.27;;;11.65;;
41480;SDS011;27217;51.220;5.308;2023-06-22T05:24:08;19.52;;;10.68;;
41480;SDS011;27217;51.220;5.308;2023-06-22T05:26:34;13.63;;;9.95;;
41480;SDS011;27217;51.220;5.308;2023-06-22T05:29:01;18.17;;;11.32;;
41480;SDS011;27217;51.220;5.308;2023-06-22T05:31:27;18.25;;;11.40;;
41480;SDS011;27217;51.220;5.308;2023-06-22T05:33:54;18.33;;;11.50;;
41480;SDS011;27217;51.220;5.308;2023-06-22T05:36:21;15.10;;;10.88;;
41480;SDS011;27217;51.220;5.308;2023-06-22T05:38:50;14.45;;;10.43;;
41480;SDS011;27217;51.220;5.308;2023-06-22T05:41:18;16.90;;;10.95;;
41480;SDS011;27217;51.220;5.308;2023-06-22T05:43:44;16.48;;;10.73;;
41480;SDS011;27217;51.220;5.308;2023-06-22T05:46:09;27.30;;;11.98;;
41480;SDS011;27217;51.220;5.308;2023-06-22T05:48:35;20.02;;;11.68;;
41480;SDS011;27217;51.220;5.308;2023-06-22T05:51:01;16.60;;;11.15;;
41480;SDS011;27217;51.220;5.308;2023-06-22T05:53:27;15.80;;;10.82;;
41480;SDS011;27217;51.220;5.308;2023-06-22T05:55:55;14.23;;;10.70;;
41480;SDS011;27217;51.220;5.308;2023-06-22T05:58:22;18.08;;;11.30;;
41480;SDS011;27217;51.220;5.308;2023-06-22T06:00:47;20.25;;;12.68;;
41480;SDS011;27217;51.220;5.308;2023-06-22T06:03:13;17.77;;;12.63;;
41480;SDS011;27217;51.220;5.308;2023-06-22T06:05:42;17.48;;;12.18;;
41480;SDS011;27217;51.220;5.308;2023-06-22T06:08:09;32.40;;;15.73;;
41480;SDS011;27217;51.220;5.308;2023-06-22T06:10:36;24.42;;;13.02;;
41480;SDS011;27217;51.220;5.308;2023-06-22T06:13:02;24.65;;;15.60;;
41480;SDS011;27217;51.220;5.308;2023-06-22T06:15:29;26.92;;;15.82;;
41480;SDS011;27217;51.220;5.308;2023-06-22T06:17:55;32.33;;;17.65;;
41480;SDS011;27217;51.220;5.308;2023-06-22T06:20:22;24.73;;;17.02;;
41480;SDS011;27217;51.220;5.308;2023-06-22T06:22:49;30.55;;;18.17;;
41480;SDS011;27217;51.220;5.308;2023-06-22T06:25:15;28.02;;;17.85;;
41480;SDS011;27217;51.220;5.308;2023-06-22T06:27:45;29.45;;;19.05;;
41480;SDS011;27217;51.220;5.308;2023-06-22T06:30:14;29.50;;;17.77;;
41480;SDS011;27217;51.220;5.308;2023-06-22T06:32:41;27.27;;;18.02;;
41480;SDS011;27217;51.220;5.308;2023-06-22T06:35:08;27.20;;;17.77;;
41480;SDS011;27217;51.220;5.308;2023-06-22T06:37:41;31.58;;;18.98;;
41480;SDS011;27217;51.220;5.308;2023-06-22T06:40:11;33.80;;;20.45;;
41480;SDS011;27217;51.220;5.308;2023-06-22T06:42:38;32.35;;;20.48;;
41480;SDS011;27217;51.220;5.308;2023-06-22T06:45:16;29.55;;;19.20;;
41480;SDS011;27217;51.220;5.308;2023-06-22T06:47:47;34.55;;;19.05;;
41480;SDS011;27217;51.220;5.308;2023-06-22T06:50:13;33.00;;;18.98;;
41480;SDS011;27217;51.220;5.308;2023-06-22T06:52:41;29.85;;;18.05;;
41480;SDS011;27217;51.220;5.308;2023-06-22T06:55:07;29.30;;;18.60;;
41480;SDS011;27217;51.220;5.308;2023-06-22T06:57:38;29.98;;;17.73;;
41480;SDS011;27217;51.220;5.308;2023-06-22T07:00:05;29.70;;;19.48;;
41480;SDS011;27217;51.220;5.308;2023-06-22T07:02:35;26.20;;;17.53;;
41480;SDS011;27217;51.220;5.308;2023-06-22T07:05:01;28.35;;;18.70;;
41480;SDS011;27217;51.220;5.308;2023-06-22T07:07:29;26.13;;;19.30;;
41480;SDS011;27217;51.220;5.308;2023-06-22T07:09:55;34.97;;;19.98;;
41480;SDS011;27217;51.220;5.308;2023-06-22T07:12:21;30.48;;;18.73;;
41480;SDS011;27217;51.220;5.308;2023-06-22T07:14:47;29.58;;;19.67;;
41480;SDS011;27217;51.220;5.308;2023-06-22T07:17:13;27.17;;;19.02;;
41480;SDS011;27217;51.220;5.308;2023-06-22T07:19:41;28.27;;;18.98;;
41480;SDS011;27217;51.220;5.308;2023-06-22T07:22:07;36.65;;;19.92;;
41480;SDS011;27217;51.220;5.308;2023-06-22T07:24:33;33.63;;;21.88;;
41480;SDS011;27217;51.220;5.308;2023-06-22T07:26:59;30.05;;;20.83;;
41480;SDS011;27217;51.220;5.308;2023-06-22T07:29:27;30.60;;;20.65;;
41480;SDS011;27217;51.220;5.308;2023-06-22T07:31:52;31.42;;;21.20;;
41480;SDS011;27217;51.220;5.308;2023-06-22T07:34:19;30.60;;;20.52;;
41480;SDS011;27217;51.220;5.308;2023-06-22T07:36:45;31.10;;;21.73;;
41480;SDS011;27217;51.220;5.308;2023-06-22T07:39:11;32.60;;;22.10;;
41480;SDS011;27217;51.220;5.308;2023-06-22T07:41:37;32.72;;;22.77;;
41480;SDS011;27217;51.220;5.308;2023-06-22T07:44:04;33.08;;;23.45;;
41480;SDS011;27217;51.220;5.308;2023-06-22T07:46:31;30.95;;;21.55;;
41480;SDS011;27217;51.220;5.308;2023-06-22T07:48:57;35.65;;;23.05;;
41480;SDS011;27217;51.220;5.308;2023-06-22T07:51:24;31.25;;;22.80;;
41480;SDS011;27217;51.220;5.308;2023-06-22T07:53:50;27.20;;;20.70;;
41480;SDS011;27217;51.220;5.308;2023-06-22T07:56:16;33.13;;;22.02;;
41480;SDS011;27217;51.220;5.308;2023-06-22T07:58:46;30.88;;;20.73;;
41480;SDS011;27217;51.220;5.308;2023-06-22T08:01:12;31.42;;;22.25;;
41480;SDS011;27217;51.220;5.308;2023-06-22T08:03:42;27.75;;;21.08;;
41480;SDS011;27217;51.220;5.308;2023-06-22T08:06:09;33.33;;;21.30;;
41480;SDS011;27217;51.220;5.308;2023-06-22T08:08:35;29.65;;;20.45;;
41480;SDS011;27217;51.220;5.308;2023-06-22T08:11:01;31.83;;;19.95;;
41480;SDS011;27217;51.220;5.308;2023-06-22T08:13:27;29.75;;;20.33;;
41480;SDS011;27217;51.220;5.308;2023-06-22T08:15:53;32.45;;;20.35;;
41480;SDS011;27217;51.220;5.308;2023-06-22T08:18:19;30.17;;;21.67;;
41480;SDS011;27217;51.220;5.308;2023-06-22T08:20:45;34.92;;;20.98;;
41480;SDS011;27217;51.220;5.308;2023-06-22T08:23:11;31.02;;;19.88;;
41480;SDS011;27217;51.220;5.308;2023-06-22T08:25:37;25.30;;;19.00;;
41480;SDS011;27217;51.220;5.308;2023-06-22T08:28:03;34.42;;;20.35;;
41480;SDS011;27217;51.220;5.308;2023-06-22T08:30:29;30.88;;;20.33;;
41480;SDS011;27217;51.220;5.308;2023-06-22T08:32:55;34.75;;;19.30;;
41480;SDS011;27217;51.220;5.308;2023-06-22T08:35:24;31.92;;;19.38;;
41480;SDS011;27217;51.220;5.308;2023-06-22T08:37:50;31.40;;;18.77;;
41480;SDS011;27217;51.220;5.308;2023-06-22T08:40:22;30.92;;;18.88;;
41480;SDS011;27217;51.220;5.308;2023-06-22T08:42:49;22.20;;;17.42;;
41480;SDS011;27217;51.220;5.308;2023-06-22T08:45:15;32.90;;;17.17;;
41480;SDS011;27217;51.220;5.308;2023-06-22T08:47:43;26.30;;;16.50;;
41480;SDS011;27217;51.220;5.308;2023-06-22T08:50:09;23.83;;;16.55;;
41480;SDS011;27217;51.220;5.308;2023-06-22T08:52:36;24.88;;;16.15;;
41480;SDS011;27217;51.220;5.308;2023-06-22T08:55:02;25.95;;;16.52;;
41480;SDS011;27217;51.220;5.308;2023-06-22T08:57:29;25.35;;;15.63;;
41480;SDS011;27217;51.220;5.308;2023-06-22T08:59:55;27.42;;;16.88;;
41480;SDS011;27217;51.220;5.308;2023-06-22T09:02:23;23.90;;;15.32;;
41480;SDS011;27217;51.220;5.308;2023-06-22T09:04:55;30.63;;;15.65;;
41480;SDS011;27217;51.220;5.308;2023-06-22T09:07:24;20.55;;;14.70;;
41480;SDS011;27217;51.220;5.308;2023-06-22T09:09:51;24.92;;;15.07;;
41480;SDS011;27217;51.220;5.308;2023-06-22T09:12:17;22.95;;;14.93;;
41480;SDS011;27217;51.220;5.308;2023-06-22T09:14:45;19.42;;;13.75;;
41480;SDS011;27217;51.220;5.308;2023-06-22T09:17:12;24.65;;;14.18;;
41480;SDS011;27217;51.220;5.308;2023-06-22T09:19:38;22.90;;;15.00;;
41480;SDS011;27217;51.220;5.308;2023-06-22T09:22:05;19.48;;;13.75;;
41480;SDS011;27217;51.220;5.308;2023-06-22T09:24:32;20.45;;;14.07;;
41480;SDS011;27217;51.220;5.308;2023-06-22T09:26:58;17.13;;;13.43;;
41480;SDS011;27217;51.220;5.308;2023-06-22T09:29:24;22.25;;;13.80;;
41480;SDS011;27217;51.220;5.308;2023-06-22T09:31:50;23.40;;;14.00;;
41480;SDS011;27217;51.220;5.308;2023-06-22T09:34:18;20.92;;;13.35;;
41480;SDS011;27217;51.220;5.308;2023-06-22T09:36:45;21.60;;;14.60;;
41480;SDS011;27217;51.220;5.308;2023-06-22T09:39:14;16.92;;;13.25;;
41480;SDS011;27217;51.220;5.308;2023-06-22T09:41:42;22.42;;;14.45;;
41480;SDS011;27217;51.220;5.308;2023-06-22T09:44:08;17.20;;;14.10;;
41480;SDS011;27217;51.220;5.308;2023-06-22T09:46:34;20.38;;;14.52;;
41480;SDS011;27217;51.220;5.308;2023-06-22T09:49:00;24.17;;;14.13;;
41480;SDS011;27217;51.220;5.308;2023-06-22T09:51:25;24.25;;;14.13;;
41480;SDS011;27217;51.220;5.308;2023-06-22T09:53:51;22.63;;;15.13;;
41480;SDS011;27217;51.220;5.308;2023-06-22T09:56:20;21.38;;;14.63;;
41480;SDS011;27217;51.220;5.308;2023-06-22T09:58:47;21.60;;;15.20;;
41480;SDS011;27217;51.220;5.308;2023-06-22T10:01:15;21.38;;;15.43;;
41480;SDS011;27217;51.220;5.308;2023-06-22T10:03:41;24.45;;;15.07;;
41480;SDS011;27217;51.220;5.308;2023-06-22T10:06:07;23.27;;;16.27;;
41480;SDS011;27217;51.220;5.308;2023-06-22T10:08:34;23.48;;;16.20;;
41480;SDS011;27217;51.220;5.308;2023-06-22T10:11:00;33.63;;;17.95;;
41480;SDS011;27217;51.220;5.308;2023-06-22T10:13:26;27.02;;;18.30;;
41480;SDS011;27217;51.220;5.308;2023-06-22T10:15:52;27.98;;;18.52;;
41480;SDS011;27217;51.220;5.308;2023-06-22T10:18:18;32.30;;;20.60;;
41480;SDS011;27217;51.220;5.308;2023-06-22T10:20:44;30.73;;;21.50;;
41480;SDS011;27217;51.220;5.308;2023-06-22T10:23:19;31.55;;;22.13;;
41480;SDS011;27217;51.220;5.308;2023-06-22T10:25:45;34.33;;;24.75;;
41480;SDS011;27217;51.220;5.308;2023-06-22T10:28:12;38.58;;;23.90;;
41480;SDS011;27217;51.220;5.308;2023-06-22T10:30:40;34.95;;;24.92;;
41480;SDS011;27217;51.220;5.308;2023-06-22T10:33:06;43.17;;;26.88;;
41480;SDS011;27217;51.220;5.308;2023-06-22T10:35:33;40.88;;;29.52;;
41480;SDS011;27217;51.220;5.308;2023-06-22T10:38:05;54.22;;;31.95;;
41480;SDS011;27217;51.220;5.308;2023-06-22T10:40:31;53.90;;;33.85;;
41480;SDS011;27217;51.220;5.308;2023-06-22T10:42:57;64.35;;;37.80;;
41480;SDS011;27217;51.220;5.308;2023-06-22T10:45:23;52.70;;;33.88;;
41480;SDS011;27217;51.220;5.308;2023-06-22T10:47:50;56.63;;;34.70;;
41480;SDS011;27217;51.220;5.308;2023-06-22T10:50:15;56.70;;;36.08;;
41480;SDS011;27217;51.220;5.308;2023-06-22T10:52:41;69.93;;;36.92;;
41480;SDS011;27217;51.220;5.308;2023-06-22T10:55:08;54.85;;;36.03;;
41480;SDS011;27217;51.220;5.308;2023-06-22T10:57:34;60.15;;;36.30;;
41480;SDS011;27217;51.220;5.308;2023-06-22T11:00:00;53.35;;;35.50;;
41480;SDS011;27217;51.220;5.308;2023-06-22T11:02:25;60.47;;;36.55;;
41480;SDS011;27217;51.220;5.308;2023-06-22T11:04:53;56.47;;;35.85;;
41480;SDS011;27217;51.220;5.308;2023-06-22T11:07:19;56.72;;;36.70;;
41480;SDS011;27217;51.220;5.308;2023-06-22T11:09:44;57.38;;;36.13;;
41480;SDS011;27217;51.220;5.308;2023-06-22T11:12:10;52.47;;;34.15;;
41480;SDS011;27217;51.220;5.308;2023-06-22T11:14:36;50.58;;;34.28;;
41480;SDS011;27217;51.220;5.308;2023-06-22T11:17:01;51.03;;;33.30;;
41480;SDS011;27217;51.220;5.308;2023-06-22T11:19:27;49.42;;;34.28;;
41480;SDS011;27217;51.220;5.308;2023-06-22T11:21:53;50.65;;;33.42;;
41480;SDS011;27217;51.220;5.308;2023-06-22T11:24:19;48.38;;;32.65;;
41480;SDS011;27217;51.220;5.308;2023-06-22T11:26:44;45.03;;;32.13;;
41480;SDS011;27217;51.220;5.308;2023-06-22T11:29:10;51.38;;;33.50;;
41480;SDS011;27217;51.220;5.308;2023-06-22T11:31:36;45.95;;;32.38;;
41480;SDS011;27217;51.220;5.308;2023-06-22T11:34:02;55.47;;;33.67;;
41480;SDS011;27217;51.220;5.308;2023-06-22T11:36:28;53.97;;;33.90;;
41480;SDS011;27217;51.220;5.308;2023-06-22T11:38:57;48.25;;;33.38;;
41480;SDS011;27217;51.220;5.308;2023-06-22T11:41:23;47.85;;;32.90;;
41480;SDS011;27217;51.220;5.308;2023-06-22T11:43:49;48.72;;;32.85;;
41480;SDS011;27217;51.220;5.308;2023-06-22T11:46:15;48.65;;;33.35;;
41480;SDS011;27217;51.220;5.308;2023-06-22T11:48:40;46.63;;;31.08;;
41480;SDS011;27217;51.220;5.308;2023-06-22T11:51:06;47.85;;;32.55;;
41480;SDS011;27217;51.220;5.308;2023-06-22T11:53:33;57.95;;;33.00;;
41480;SDS011;27217;51.220;5.308;2023-06-22T11:56:00;50.03;;;33.13;;
41480;SDS011;27217;51.220;5.308;2023-06-22T11:58:26;53.88;;;32.53;;
41480;SDS011;27217;51.220;5.308;2023-06-22T12:00:53;52.47;;;30.75;;
41480;SDS011;27217;51.220;5.308;2023-06-22T12:03:19;51.58;;;31.83;;
41480;SDS011;27217;51.220;5.308;2023-06-22T12:05:46;50.78;;;33.33;;
41480;SDS011;27217;51.220;5.308;2023-06-22T12:08:12;49.20;;;32.63;;
41480;SDS011;27217;51.220;5.308;2023-06-22T12:10:38;60.17;;;34.25;;
41480;SDS011;27217;51.220;5.308;2023-06-22T12:13:05;55.45;;;35.60;;
41480;SDS011;27217;51.220;5.308;2023-06-22T12:15:31;57.63;;;37.42;;
41480;SDS011;27217;51.220;5.308;2023-06-22T12:17:56;63.90;;;36.10;;
41480;SDS011;27217;51.220;5.308;2023-06-22T12:20:22;53.10;;;35.33;;
41480;SDS011;27217;51.220;5.308;2023-06-22T12:22:48;56.45;;;34.92;;
41480;SDS011;27217;51.220;5.308;2023-06-22T12:25:16;52.92;;;35.08;;
41480;SDS011;27217;51.220;5.308;2023-06-22T12:27:42;58.08;;;33.03;;
41480;SDS011;27217;51.220;5.308;2023-06-22T12:30:08;54.35;;;35.65;;
41480;SDS011;27217;51.220;5.308;2023-06-22T12:32:34;51.72;;;34.28;;
41480;SDS011;27217;51.220;5.308;2023-06-22T12:35:00;49.50;;;32.53;;
41480;SDS011;27217;51.220;5.308;2023-06-22T12:37:25;50.67;;;33.55;;
41480;SDS011;27217;51.220;5.308;2023-06-22T12:39:51;50.10;;;32.17;;
41480;SDS011;27217;51.220;5.308;2023-06-22T12:42:18;50.30;;;34.28;;
41480;SDS011;27217;51.220;5.308;2023-06-22T12:44:44;49.10;;;32.35;;
41480;SDS011;27217;51.220;5.308;2023-06-22T12:47:09;51.03;;;33.30;;
41480;SDS011;27217;51.220;5.308;2023-06-22T12:49:36;55.95;;;34.88;;
41480;SDS011;27217;51.220;5.308;2023-06-22T12:52:02;52.45;;;35.05;;
41480;SDS011;27217;51.220;5.308;2023-06-22T12:54:28;51.70;;;35.30;;
41480;SDS011;27217;51.220;5.308;2023-06-22T12:56:54;53.10;;;35.08;;
41480;SDS011;27217;51.220;5.308;2023-06-22T12:59:23;53.63;;;34.85;;
41480;SDS011;27217;51.220;5.308;2023-06-22T13:01:48;51.85;;;35.40;;
41480;SDS011;27217;51.220;5.308;2023-06-22T13:04:14;55.50;;;35.45;;
41480;SDS011;27217;51.220;5.308;2023-06-22T13:06:44;57.38;;;35.15;;
41480;SDS011;27217;51.220;5.308;2023-06-22T13:09:13;59.15;;;36.67;;
41480;SDS011;27217;51.220;5.308;2023-06-22T13:11:40;56.17;;;37.00;;
41480;SDS011;27217;51.220;5.308;2023-06-22T13:14:06;62.20;;;39.70;;
41480;SDS011;27217;51.220;5.308;2023-06-22T13:16:32;56.30;;;37.08;;
41480;SDS011;27217;51.220;5.308;2023-06-22T13:18:57;52.70;;;35.83;;
41480;SDS011;27217;51.220;5.308;2023-06-22T13:21:23;63.90;;;40.78;;
41480;SDS011;27217;51.220;5.308;2023-06-22T13:23:50;55.22;;;36.50;;
41480;SDS011;27217;51.220;5.308;2023-06-22T13:26:15;55.88;;;39.10;;
41480;SDS011;27217;51.220;5.308;2023-06-22T13:28:41;59.00;;;35.00;;
41480;SDS011;27217;51.220;5.308;2023-06-22T13:31:07;52.45;;;37.47;;
41480;SDS011;27217;51.220;5.308;2023-06-22T13:33:32;55.45;;;34.92;;
41480;SDS011;27217;51.220;5.308;2023-06-22T13:35:58;55.42;;;37.03;;
41480;SDS011;27217;51.220;5.308;2023-06-22T13:38:26;51.78;;;34.75;;
41480;SDS011;27217;51.220;5.308;2023-06-22T13:40:52;50.97;;;33.80;;
41480;SDS011;27217;51.220;5.308;2023-06-22T13:43:20;47.75;;;33.13;;
41480;SDS011;27217;51.220;5.308;2023-06-22T13:45:45;40.75;;;29.98;;
41480;SDS011;27217;51.220;5.308;2023-06-22T13:48:11;44.88;;;30.88;;
41480;SDS011;27217;51.220;5.308;2023-06-22T13:50:37;49.45;;;31.23;;
41480;SDS011;27217;51.220;5.308;2023-06-22T13:53:03;47.40;;;31.88;;
41480;SDS011;27217;51.220;5.308;2023-06-22T13:55:29;52.92;;;32.00;;
41480;SDS011;27217;51.220;5.308;2023-06-22T13:57:55;45.63;;;32.10;;
41480;SDS011;27217;51.220;5.308;2023-06-22T14:00:21;45.58;;;30.85;;
41480;SDS011;27217;51.220;5.308;2023-06-22T14:02:47;46.53;;;30.20;;
41480;SDS011;27217;51.220;5.308;2023-06-22T14:05:12;50.58;;;31.05;;
41480;SDS011;27217;51.220;5.308;2023-06-22T14:07:38;44.55;;;30.30;;
41480;SDS011;27217;51.220;5.308;2023-06-22T14:10:04;42.90;;;30.00;;
41480;SDS011;27217;51.220;5.308;2023-06-22T14:12:31;40.25;;;28.25;;
41480;SDS011;27217;51.220;5.308;2023-06-22T14:14:56;43.88;;;29.98;;
41480;SDS011;27217;51.220;5.308;2023-06-22T14:17:22;49.05;;;30.63;;
41480;SDS011;27217;51.220;5.308;2023-06-22T14:19:51;52.35;;;32.05;;
41480;SDS011;27217;51.220;5.308;2023-06-22T14:22:18;47.28;;;30.90;;
41480;SDS011;27217;51.220;5.308;2023-06-22T14:24:44;42.88;;;28.75;;
41480;SDS011;27217;51.220;5.308;2023-06-22T14:27:11;43.97;;;29.08;;
41480;SDS011;27217;51.220;5.308;2023-06-22T14:29:36;38.05;;;27.70;;
41480;SDS011;27217;51.220;5.308;2023-06-22T14:32:02;40.78;;;27.52;;